KVAD/VAD METAR and TAF weather

Enter ICAO airport designator
Station Type Date Time Source
KVAD METAR 2020/09/26 21:56 UTC NOAA

KVAD 262156Z AUTO 28004KT 10SM CLR 29/19 A2996 RMK AO2 SLP146 T02940185 $


Station Type Date Time Source
KVAD Decoded METAR 2020/09/26 21:56 UTC NOAA

Moody Air Force Base, GA, United States (KVAD) 30-58N 083-12W 71M
Sep 26, 2020 - 05:56 PM EDT / 2020.09.26 2156 UTC
Wind: from the W (280 degrees) at 5 MPH (4 KT):0
Visibility: 10 mile(s):0
Sky conditions: clear
Temperature: 84.9 F (29.4 C)
Dew Point: 65.3 F (18.5 C)
Relative Humidity: 51%
Pressure (altimeter): 29.96 in. Hg (1014 hPa)
ob: KVAD 262156Z AUTO 28004KT 10SM CLR 29/19 A2996 RMK AO2 SLP146 T02940185
cycle: 22

Station Type Date Time Source
KVAD TAF 2020/09/26 01:28 UTC NOAA

TAF
AMD KVAD 260130Z 2601/2706 22006KT 9999 BKN020 QNH2993INS
BECMG 2603/2604 29006KT 9999 BKN010 QNH2997INS
BECMG 2609/2610 31006KT 9999 BKN007 QNH2996INS
BECMG 2613/2614 31006KT 9999 BKN020 QNH2999INS
BECMG 2617/2618 31006KT 9999 SKC QNH2992INS TX30/2620Z TN23/2604Z LAST NO
AMDS AFT 2601 NEXT 2808

Example: see airport list